Saint-Roch-Des-Aulnaies, Canada
Current Conditions -  °F | °C
As of 8:28 PM on Saturday 22 Nov 2014 (Local Time) from CYQB Reporting Station
Light Snow Light Snow  
Wind Chill: 18°   Ceiling: 700
Heat Index: 30°   Visibility: 1.2mi
Dew Point: 27°   Wind: 18mph
Humidity: 86%   Direction: 240°WSW
Pressure: 29.83"   Gusts: NA
Location:  47.32°N, 70.18°W
Report Text: CYQB 230128Z 24016KT 1 1/4SM -SN BLSN OVC007 M01/M03 A2983 RMK BLSN5SC3 SLP106
Loading
Personal Weather Stations






























Interactive Weather Map New forecast layout! Learn more

10-Day Weather Forecast

Advertisements
Track Severe Weather on mobile